createdAt,value
2017-09-03T00:02:22.311Z,11.87
2017-09-03T00:04:48.984Z,12.53
2017-09-03T00:07:15.975Z,9.87
2017-09-03T00:09:42.624Z,11.40
2017-09-03T00:12:09.273Z,11.30
2017-09-03T00:14:35.952Z,11.70
2017-09-03T00:17:02.596Z,13.10
2017-09-03T00:19:29.261Z,11.47
2017-09-03T00:21:55.916Z,13.27
2017-09-03T00:24:22.601Z,12.80
2017-09-03T00:26:49.263Z,14.50
2017-09-03T00:29:16.028Z,13.67
2017-09-03T00:31:43.134Z,15.37
2017-09-03T00:34:10.872Z,13.73
2017-09-03T00:36:38.014Z,13.70
2017-09-03T00:39:04.887Z,12.47
2017-09-03T00:41:31.684Z,15.20
2017-09-03T00:43:58.446Z,16.87
2017-09-03T00:46:26.178Z,16.97
2017-09-03T00:48:52.837Z,18.40
2017-09-03T00:51:19.659Z,19.40
2017-09-03T00:53:46.353Z,19.77
2017-09-03T00:56:13.284Z,19.80
2017-09-03T00:58:40.114Z,22.30
2017-09-03T01:01:07.164Z,21.50
2017-09-03T01:03:35.211Z,24.73
2017-09-03T01:06:02.675Z,22.90
2017-09-03T01:08:29.352Z,24.00
2017-09-03T01:10:56.340Z,21.77
2017-09-03T01:13:23.032Z,22.27
2017-09-03T01:15:49.718Z,24.73
2017-09-03T01:18:16.363Z,24.47
2017-09-03T01:20:43.012Z,25.10
2017-09-03T01:23:09.684Z,25.07
2017-09-03T01:25:36.357Z,27.40
2017-09-03T01:28:03.027Z,25.50
2017-09-03T01:30:29.695Z,23.00
2017-09-03T01:32:56.348Z,25.57
2017-09-03T01:35:23.026Z,28.37
2017-09-03T01:37:49.683Z,28.37
2017-09-03T01:40:16.376Z,27.57
2017-09-03T01:42:43.029Z,27.80
2017-09-03T01:45:09.687Z,27.97
2017-09-03T01:47:36.357Z,26.80
2017-09-03T01:50:03.038Z,25.93
2017-09-03T01:52:29.707Z,26.03
2017-09-03T01:54:56.374Z,26.17
2017-09-03T01:57:23.023Z,28.10
2017-09-03T01:59:49.673Z,29.37
2017-09-03T02:02:16.355Z,24.43
2017-09-03T02:04:43.004Z,27.20
2017-09-03T02:07:09.675Z,26.90
2017-09-03T02:09:36.317Z,27.37
2017-09-03T02:12:03.245Z,26.57
2017-09-03T02:14:29.892Z,24.97
2017-09-03T02:16:56.542Z,26.40
2017-09-03T02:19:23.217Z,28.97
2017-09-03T02:21:49.911Z,25.80
2017-09-03T02:24:17.312Z,25.87
2017-09-03T02:26:43.984Z,27.47
2017-09-03T02:29:10.656Z,28.13
2017-09-03T02:31:37.324Z,27.73
2017-09-03T02:34:04.651Z,26.93
2017-09-03T02:36:31.348Z,30.67
2017-09-03T02:38:58.186Z,29.80
2017-09-03T02:41:24.867Z,32.37
2017-09-03T02:43:51.517Z,30.70
2017-09-03T02:46:18.189Z,34.57
2017-09-03T02:48:44.844Z,34.50
2017-09-03T02:51:11.529Z,33.13
2017-09-03T02:53:38.185Z,32.50
2017-09-03T02:56:04.829Z,34.23
2017-09-03T02:58:31.512Z,32.50
2017-09-03T03:00:58.152Z,35.00
2017-09-03T03:03:24.800Z,34.10
2017-09-03T03:05:51.477Z,34.87
2017-09-03T03:08:18.124Z,34.87
2017-09-03T03:10:44.795Z,33.27
2017-09-03T03:13:11.448Z,33.33
2017-09-03T03:15:38.116Z,33.50
2017-09-03T03:18:04.783Z,32.40
2017-09-03T03:20:31.745Z,30.50
2017-09-03T03:22:58.403Z,30.77
2017-09-03T03:25:25.089Z,32.27
2017-09-03T03:27:51.742Z,28.00
2017-09-03T03:30:18.389Z,27.90
2017-09-03T03:32:45.055Z,27.20
2017-09-03T03:35:11.729Z,27.13
2017-09-03T03:37:38.403Z,24.97
2017-09-03T03:40:05.064Z,26.63
2017-09-03T03:42:31.744Z,26.13
2017-09-03T03:44:58.392Z,27.83
2017-09-03T03:47:25.203Z,25.80
2017-09-03T03:49:51.853Z,26.13
2017-09-03T03:52:18.498Z,25.40
2017-09-03T03:54:45.176Z,26.87
2017-09-03T03:57:11.825Z,26.37
2017-09-03T03:59:38.916Z,28.97
2017-09-03T04:02:05.558Z,29.97
2017-09-03T04:04:32.202Z,26.83
2017-09-03T04:06:58.891Z,28.17
2017-09-03T04:09:25.545Z,31.77
2017-09-03T04:11:52.197Z,30.30
2017-09-03T04:14:18.863Z,28.77
2017-09-03T04:16:45.512Z,31.97
2017-09-03T04:19:12.161Z,28.27
2017-09-03T04:21:38.829Z,25.93
2017-09-03T04:24:05.503Z,25.87
2017-09-03T04:26:32.149Z,23.87
2017-09-03T04:28:58.807Z,24.53
2017-09-03T04:31:25.474Z,25.10
2017-09-03T04:33:52.141Z,25.43
2017-09-03T04:36:18.793Z,25.43
2017-09-03T04:38:45.478Z,25.70
2017-09-03T04:41:12.124Z,24.90
2017-09-03T04:43:38.792Z,25.43
2017-09-03T04:46:05.480Z,25.70
2017-09-03T04:48:32.443Z,26.10
2017-09-03T04:50:59.091Z,27.67
2017-09-03T04:53:25.762Z,26.27
2017-09-03T04:55:52.436Z,27.37
2017-09-03T04:58:19.113Z,29.03
2017-09-03T05:00:45.788Z,27.10
2017-09-03T05:03:12.446Z,25.27
2017-09-03T05:05:39.093Z,29.23
2017-09-03T05:08:05.790Z,27.43
2017-09-03T05:10:32.445Z,24.90
2017-09-03T05:12:59.089Z,25.27
2017-09-03T05:15:25.761Z,27.33
2017-09-03T05:17:52.408Z,27.87
2017-09-03T05:20:19.275Z,25.63
2017-09-03T05:22:45.925Z,26.50
2017-09-03T05:25:12.572Z,25.50
2017-09-03T05:27:39.244Z,24.63
2017-09-03T05:30:05.896Z,25.47
2017-09-03T05:32:32.567Z,27.33
2017-09-03T05:34:59.208Z,28.47
2017-09-03T05:37:26.295Z,29.30
2017-09-03T05:39:52.943Z,29.13
2017-09-03T05:42:19.600Z,25.93
2017-09-03T05:44:46.296Z,25.07
2017-09-03T05:47:12.946Z,28.50
2017-09-03T05:49:39.597Z,27.60
2017-09-03T05:52:06.376Z,26.53
2017-09-03T05:54:33.028Z,28.00
2017-09-03T05:56:59.677Z,26.80
2017-09-03T05:59:26.355Z,23.33
2017-09-03T06:01:53.005Z,25.93
2017-09-03T06:04:19.773Z,24.80
2017-09-03T06:06:46.425Z,24.83
2017-09-03T06:09:13.077Z,22.70
2017-09-03T06:11:39.976Z,23.47
2017-09-03T06:14:06.623Z,23.57
2017-09-03T06:16:33.273Z,22.40
2017-09-03T06:19:00.200Z,24.20
2017-09-03T06:21:26.849Z,24.30
2017-09-03T06:23:53.488Z,24.03
2017-09-03T06:26:20.176Z,22.57
2017-09-03T06:28:46.826Z,21.87
2017-09-03T06:31:13.478Z,22.30
2017-09-03T06:33:40.156Z,20.17
2017-09-03T06:36:06.833Z,23.67
2017-09-03T06:38:33.501Z,23.10
2017-09-03T06:41:00.148Z,20.77
2017-09-03T06:43:26.816Z,19.23
2017-09-03T06:45:53.456Z,20.70
2017-09-03T06:48:20.109Z,22.67
2017-09-03T06:50:46.795Z,21.77
2017-09-03T06:53:13.439Z,23.27
2017-09-03T06:55:40.101Z,18.80
2017-09-03T06:58:06.768Z,18.93
2017-09-03T07:00:33.439Z,23.20
2017-09-03T07:03:00.117Z,20.53
2017-09-03T07:05:26.766Z,21.17
2017-09-03T07:07:53.413Z,20.63
2017-09-03T07:10:20.083Z,16.67
2017-09-03T07:12:46.728Z,16.87
2017-09-03T07:15:13.378Z,18.40
2017-09-03T07:17:40.045Z,19.27
2017-09-03T07:20:06.720Z,19.70
2017-09-03T07:22:33.381Z,15.57
2017-09-03T07:25:00.072Z,15.13
2017-09-03T07:27:26.725Z,13.53
2017-09-03T07:29:53.375Z,13.40
2017-09-03T07:32:20.039Z,14.33
2017-09-03T07:34:46.689Z,13.03
2017-09-03T07:37:13.361Z,13.37
2017-09-03T07:39:40.025Z,12.20
2017-09-03T07:42:06.699Z,15.40
2017-09-03T07:44:33.355Z,16.63
2017-09-03T07:47:00.023Z,16.63
2017-09-03T07:49:26.697Z,15.07
2017-09-03T07:51:53.344Z,13.80
2017-09-03T07:54:20.022Z,14.10
2017-09-03T07:56:46.677Z,15.10
2017-09-03T07:59:13.333Z,17.60
2017-09-03T08:01:40.006Z,15.80
2017-09-03T08:04:06.660Z,15.37
2017-09-03T08:06:33.326Z,15.00
2017-09-03T08:08:59.968Z,14.53
2017-09-03T08:11:26.617Z,13.90
2017-09-03T08:13:53.288Z,14.10
2017-09-03T08:16:19.945Z,13.47
2017-09-03T08:18:46.617Z,12.87
2017-09-03T08:21:13.293Z,11.93
2017-09-03T08:23:39.962Z,9.60
2017-09-03T08:26:06.650Z,10.67
2017-09-03T08:28:33.477Z,10.80
2017-09-03T08:31:00.162Z,11.23
2017-09-03T08:33:26.812Z,8.57
2017-09-03T08:35:53.460Z,8.97
2017-09-03T08:38:20.122Z,6.97
2017-09-03T08:40:46.771Z,8.43
2017-09-03T08:43:13.445Z,7.60
2017-09-03T08:45:40.091Z,4.80
2017-09-03T08:48:06.724Z,5.33
2017-09-03T08:50:33.384Z,7.37
2017-09-03T08:53:00.024Z,4.93
2017-09-03T08:55:26.669Z,5.43
2017-09-03T08:57:53.353Z,5.10
2017-09-03T09:00:20.020Z,4.77
2017-09-03T09:02:46.855Z,7.53
2017-09-03T09:05:13.518Z,7.40
2017-09-03T09:07:40.158Z,6.93
2017-09-03T09:10:06.833Z,7.53
2017-09-03T09:12:33.479Z,6.50
2017-09-03T09:15:00.144Z,5.43
2017-09-03T09:17:26.796Z,6.20
2017-09-03T09:19:53.470Z,4.50
2017-09-03T09:22:20.121Z,5.27
2017-09-03T09:24:46.782Z,5.83
2017-09-03T09:27:13.421Z,3.30
2017-09-03T09:29:40.078Z,4.83
2017-09-03T09:32:06.765Z,4.50
2017-09-03T09:34:33.408Z,4.67
2017-09-03T09:37:00.080Z,3.70
2017-09-03T09:39:26.993Z,3.70
2017-09-03T09:41:53.632Z,3.80
2017-09-03T09:44:20.266Z,4.90
2017-09-03T09:46:46.935Z,3.87
2017-09-03T09:49:13.621Z,3.83
2017-09-03T09:51:40.267Z,4.40
2017-09-03T09:54:06.918Z,3.63
2017-09-03T09:56:33.580Z,3.63
2017-09-03T09:59:00.220Z,3.87
2017-09-03T10:01:26.865Z,4.17
2017-09-03T10:03:53.537Z,2.73
2017-09-03T10:06:20.200Z,3.07
2017-09-03T10:08:46.852Z,3.63
2017-09-03T10:11:13.519Z,3.13
2017-09-03T10:13:40.460Z,3.20
2017-09-03T10:16:07.101Z,2.90
2017-09-03T10:18:34.157Z,3.00
2017-09-03T10:21:00.792Z,2.60
2017-09-03T10:23:27.443Z,2.60
2017-09-03T10:25:54.127Z,3.13
2017-09-03T10:28:20.776Z,3.33
2017-09-03T10:30:47.420Z,2.50
2017-09-03T10:33:14.077Z,3.00
2017-09-03T10:35:40.736Z,3.70
2017-09-03T10:38:07.382Z,2.43
2017-09-03T10:40:34.049Z,2.93
2017-09-03T10:43:00.723Z,8.80
2017-09-03T10:45:27.393Z,3.40
2017-09-03T10:47:54.037Z,4.00
2017-09-03T10:50:20.681Z,3.13
2017-09-03T10:52:48.220Z,3.37
2017-09-03T10:55:14.898Z,2.77
2017-09-03T10:57:41.540Z,3.10
2017-09-03T11:00:08.185Z,3.23
2017-09-03T11:02:34.969Z,2.33
2017-09-03T11:05:01.609Z,3.03
2017-09-03T11:07:28.244Z,3.50
2017-09-03T11:09:54.909Z,4.13
2017-09-03T11:12:21.573Z,3.27
2017-09-03T11:14:48.241Z,3.80
2017-09-03T11:17:14.893Z,3.10
2017-09-03T11:19:41.546Z,4.40
2017-09-03T11:22:08.208Z,4.20
2017-09-03T11:24:34.846Z,3.07
2017-09-03T11:27:01.842Z,4.20
2017-09-03T11:29:28.585Z,5.00
2017-09-03T11:31:55.221Z,3.73
2017-09-03T11:34:21.881Z,4.17
2017-09-03T11:36:48.513Z,4.10
2017-09-03T11:39:15.176Z,5.60
2017-09-03T11:41:41.825Z,26.47
2017-09-03T11:44:08.489Z,5.60
2017-09-03T11:46:35.121Z,5.83
2017-09-03T11:49:01.808Z,6.77
2017-09-03T11:51:28.459Z,7.97
2017-09-03T11:53:55.100Z,8.13
2017-09-03T11:56:21.779Z,7.17
2017-09-03T11:58:48.419Z,7.20
2017-09-03T12:01:15.060Z,8.13
2017-09-03T12:03:41.728Z,9.00
2017-09-03T12:06:08.405Z,6.60
2017-09-03T12:08:35.074Z,9.20
2017-09-03T12:11:01.713Z,7.60
2017-09-03T12:13:28.396Z,9.30
2017-09-03T12:15:55.042Z,9.00
2017-09-03T12:18:21.684Z,7.37
2017-09-03T12:20:48.344Z,7.80
2017-09-03T12:23:14.991Z,8.33
2017-09-03T12:25:41.628Z,6.80
2017-09-03T12:28:08.301Z,7.57
2017-09-03T12:30:34.939Z,7.50
2017-09-03T12:33:01.751Z,6.13
2017-09-03T12:35:28.399Z,7.50
2017-09-03T12:37:55.037Z,6.50
2017-09-03T12:40:21.699Z,6.77
2017-09-03T12:42:48.336Z,6.23
2017-09-03T12:45:15.008Z,6.07
2017-09-03T12:47:41.657Z,6.30
2017-09-03T12:50:08.328Z,6.13
2017-09-03T12:52:34.968Z,5.40
2017-09-03T12:55:01.625Z,4.83
2017-09-03T12:57:28.262Z,4.43
2017-09-03T12:59:54.905Z,4.60
2017-09-03T13:02:21.576Z,3.73
2017-09-03T13:04:48.225Z,4.37
2017-09-03T13:07:14.892Z,3.33
2017-09-03T13:09:41.530Z,2.70
2017-09-03T13:12:08.180Z,3.10
2017-09-03T13:14:34.850Z,3.70
2017-09-03T13:17:01.492Z,2.67
2017-09-03T13:19:28.178Z,3.20
2017-09-03T13:21:54.816Z,2.90
2017-09-03T13:24:21.471Z,3.37
2017-09-03T13:26:48.124Z,3.00
2017-09-03T13:29:14.775Z,3.27
2017-09-03T13:31:41.419Z,3.80
2017-09-03T13:34:08.099Z,2.50
2017-09-03T13:36:34.741Z,2.50
2017-09-03T13:39:01.396Z,2.80
2017-09-03T13:41:28.057Z,2.27
2017-09-03T13:43:54.704Z,3.47
2017-09-03T13:46:21.372Z,2.97
2017-09-03T13:48:48.044Z,4.83
2017-09-03T13:51:14.683Z,2.40
2017-09-03T13:53:41.329Z,1.93
2017-09-03T13:56:08.011Z,2.37
2017-09-03T13:58:34.665Z,2.90
2017-09-03T14:01:01.703Z,2.47
2017-09-03T14:03:28.483Z,2.10
2017-09-03T14:05:55.141Z,2.27
2017-09-03T14:08:21.806Z,2.23
2017-09-03T14:10:48.450Z,1.83
2017-09-03T14:13:15.092Z,2.50
2017-09-03T14:15:41.776Z,2.40
2017-09-03T14:18:08.442Z,1.90
2017-09-03T14:20:35.075Z,1.87
2017-09-03T14:23:01.718Z,2.43
2017-09-03T14:25:28.388Z,1.80
2017-09-03T14:27:55.027Z,1.93
2017-09-03T14:30:21.696Z,2.83
2017-09-03T14:32:48.390Z,2.83
2017-09-03T14:35:15.070Z,3.30
2017-09-03T14:37:41.736Z,2.50
2017-09-03T14:40:08.396Z,3.50
2017-09-03T14:42:35.060Z,3.53
2017-09-03T14:45:01.743Z,4.17
2017-09-03T14:47:28.400Z,3.07
2017-09-03T14:49:55.069Z,3.33
2017-09-03T14:52:21.728Z,3.30
2017-09-03T14:54:48.377Z,3.00
2017-09-03T14:57:15.044Z,4.30
2017-09-03T14:59:41.695Z,4.67
2017-09-03T15:02:08.475Z,5.93
2017-09-03T15:04:35.422Z,4.80
2017-09-03T15:07:02.064Z,3.90
2017-09-03T15:09:28.702Z,3.93
2017-09-03T15:11:55.389Z,3.30
2017-09-03T15:14:22.025Z,2.57
2017-09-03T15:16:48.677Z,2.97
2017-09-03T15:19:15.340Z,3.70
2017-09-03T15:21:41.980Z,2.80
2017-09-03T15:24:08.858Z,2.40
2017-09-03T15:26:35.555Z,2.40
2017-09-03T15:29:02.189Z,2.30
2017-09-03T15:31:28.852Z,2.60
2017-09-03T15:33:55.490Z,2.27
2017-09-03T15:36:22.580Z,2.80
2017-09-03T15:38:49.211Z,2.90
2017-09-03T15:41:15.854Z,2.00
2017-09-03T15:43:42.517Z,2.43
2017-09-03T15:46:09.156Z,2.43
2017-09-03T15:48:35.837Z,2.60
2017-09-03T15:51:02.504Z,3.07
2017-09-03T15:53:29.167Z,3.57
2017-09-03T15:55:55.834Z,3.47
2017-09-03T15:58:22.496Z,4.10
2017-09-03T16:00:49.137Z,4.10
2017-09-03T16:03:15.796Z,3.10
2017-09-03T16:05:42.432Z,3.00
2017-09-03T16:08:09.116Z,2.50
2017-09-03T16:10:35.764Z,4.60
2017-09-03T16:13:02.444Z,5.00
2017-09-03T16:15:29.085Z,4.47
2017-09-03T16:17:55.765Z,80.70
2017-09-03T16:20:22.459Z,111.53
2017-09-03T16:22:49.100Z,13.10
2017-09-03T16:25:15.763Z,5.07
2017-09-03T16:27:42.425Z,6.50
2017-09-03T16:30:09.105Z,8.10
2017-09-03T16:32:35.743Z,4.90
2017-09-03T16:35:02.401Z,3.87
2017-09-03T16:37:29.060Z,4.07
2017-09-03T16:39:55.704Z,4.97
2017-09-03T16:42:22.377Z,6.33
2017-09-03T16:44:49.018Z,5.70
2017-09-03T16:47:15.788Z,5.70
2017-09-03T16:49:42.448Z,5.40
2017-09-03T16:52:09.090Z,7.33
2017-09-03T16:54:35.769Z,10.97
2017-09-03T16:57:02.461Z,143.87
2017-09-03T16:59:29.134Z,9.57
2017-09-03T17:01:55.780Z,5.40
2017-09-03T17:04:22.455Z,3.10
2017-09-03T17:06:49.121Z,3.60
2017-09-03T17:09:15.760Z,4.67
2017-09-03T17:11:42.416Z,5.63
2017-09-03T17:14:09.076Z,6.43
2017-09-03T17:16:35.728Z,4.37
2017-09-03T17:19:02.382Z,3.47
2017-09-03T17:21:31.692Z,3.60
2017-09-03T17:23:58.363Z,4.20
2017-09-03T17:26:25.000Z,6.30
2017-09-03T17:28:51.679Z,6.20
2017-09-03T17:31:33.897Z,4.97
2017-09-03T17:34:00.576Z,3.23
2017-09-03T17:36:30.119Z,4.13
2017-09-03T17:39:06.713Z,14.47
2017-09-03T17:41:37.089Z,6.20
2017-09-03T17:44:04.532Z,4.50
2017-09-03T17:46:31.774Z,4.70
2017-09-03T17:48:58.441Z,4.20
2017-09-03T17:51:25.710Z,4.07
2017-09-03T17:53:52.365Z,10.13
2017-09-03T17:56:19.025Z,6.17
2017-09-03T17:58:45.684Z,5.30
2017-09-03T18:01:12.333Z,8.23
2017-09-03T18:03:38.991Z,6.77
2017-09-03T18:06:05.663Z,4.93
2017-09-03T18:08:32.306Z,5.80
2017-09-03T18:10:58.949Z,5.60
2017-09-03T18:13:25.617Z,5.33
2017-09-03T18:15:52.287Z,5.70
2017-09-03T18:18:18.956Z,5.37
2017-09-03T18:20:45.596Z,6.13
2017-09-03T18:23:12.273Z,5.30
2017-09-03T18:25:38.913Z,4.80
2017-09-03T18:28:05.552Z,4.30
2017-09-03T18:30:32.567Z,4.20
2017-09-03T18:32:59.235Z,5.00
2017-09-03T18:35:29.582Z,5.17
2017-09-03T18:38:11.997Z,8.10
2017-09-03T18:40:39.216Z,5.83
2017-09-03T18:43:10.510Z,5.73
2017-09-03T18:45:37.203Z,7.30
2017-09-03T18:48:03.892Z,4.43
2017-09-03T18:50:46.161Z,4.20
2017-09-03T18:53:18.389Z,3.87
2017-09-03T18:55:45.714Z,5.10
2017-09-03T18:58:27.985Z,4.53
2017-09-03T19:00:54.646Z,3.90
2017-09-03T19:03:21.342Z,3.50
2017-09-03T19:05:48.017Z,3.80
2017-09-03T19:08:14.705Z,4.50
2017-09-03T19:10:41.401Z,3.80
2017-09-03T19:13:08.130Z,5.80
2017-09-03T19:15:34.791Z,4.93
2017-09-03T19:18:01.455Z,4.60
2017-09-03T19:20:28.223Z,4.53
2017-09-03T19:22:55.085Z,4.93
2017-09-03T19:25:21.745Z,3.87
2017-09-03T19:27:48.414Z,4.13
2017-09-03T19:30:15.097Z,4.40
2017-09-03T19:32:41.794Z,4.73
2017-09-03T19:35:08.460Z,6.87
2017-09-03T19:37:35.159Z,7.50
2017-09-03T19:40:01.857Z,5.10
2017-09-03T19:42:30.077Z,4.20
2017-09-03T19:44:56.868Z,4.97
2017-09-03T19:47:23.567Z,18.10
2017-09-03T19:49:50.225Z,5.33
2017-09-03T19:52:16.927Z,4.60
2017-09-03T19:54:43.905Z,5.23
2017-09-03T19:57:10.559Z,6.40
2017-09-03T19:59:37.248Z,6.27
2017-09-03T20:02:03.888Z,6.13
2017-09-03T20:04:30.540Z,6.20
2017-09-03T20:06:57.218Z,5.20
2017-09-03T20:09:23.863Z,6.50
2017-09-03T20:11:50.493Z,6.40
2017-09-03T20:14:17.163Z,7.40
2017-09-03T20:16:43.809Z,6.53
2017-09-03T20:19:10.602Z,7.80
2017-09-03T20:21:37.240Z,6.97
2017-09-03T20:24:03.889Z,7.83
2017-09-03T20:26:30.560Z,8.13
2017-09-03T20:28:57.226Z,8.43
2017-09-03T20:31:23.895Z,9.30
2017-09-03T20:33:50.541Z,8.43
2017-09-03T20:36:17.208Z,9.27
2017-09-03T20:38:43.842Z,8.40
2017-09-03T20:41:10.516Z,11.73
2017-09-03T20:43:37.187Z,8.20
2017-09-03T20:46:03.859Z,9.50
2017-09-03T20:48:30.525Z,10.40
2017-09-03T20:50:57.193Z,9.23
2017-09-03T20:53:23.865Z,10.00
2017-09-03T20:55:50.520Z,10.13
2017-09-03T20:58:17.192Z,9.87
2017-09-03T21:00:43.860Z,10.73
2017-09-03T21:03:10.516Z,9.90
2017-09-03T21:05:37.164Z,9.33
2017-09-03T21:08:03.833Z,11.23
2017-09-03T21:10:30.480Z,10.90
2017-09-03T21:12:57.390Z,11.43
2017-09-03T21:15:24.035Z,11.77
2017-09-03T21:17:50.687Z,11.83
2017-09-03T21:20:17.735Z,11.87
2017-09-03T21:22:44.601Z,13.23
2017-09-03T21:25:11.252Z,13.47
2017-09-03T21:27:37.904Z,14.20
2017-09-03T21:30:04.576Z,13.57
2017-09-03T21:32:31.230Z,12.57
2017-09-03T21:34:57.908Z,12.40
2017-09-03T21:37:24.575Z,12.80
2017-09-03T21:39:51.256Z,14.10
2017-09-03T21:42:17.929Z,13.10
2017-09-03T21:44:44.582Z,13.13
2017-09-03T21:47:11.257Z,12.90
2017-09-03T21:49:37.899Z,11.07
2017-09-03T21:52:04.544Z,12.33
2017-09-03T21:54:31.219Z,12.10
2017-09-03T21:56:57.865Z,13.60
2017-09-03T21:59:24.536Z,13.67
2017-09-03T22:01:51.188Z,13.73
2017-09-03T22:04:17.844Z,12.80
2017-09-03T22:06:44.512Z,13.43
2017-09-03T22:09:11.178Z,13.87
2017-09-03T22:11:37.840Z,14.70
2017-09-03T22:14:04.485Z,14.63
2017-09-03T22:16:31.165Z,14.83
2017-09-03T22:18:57.808Z,14.37
2017-09-03T22:21:24.490Z,13.50
2017-09-03T22:23:51.146Z,13.97
2017-09-03T22:26:17.812Z,13.53
2017-09-03T22:28:44.457Z,16.40
2017-09-03T22:31:11.150Z,14.33
2017-09-03T22:33:37.804Z,16.50
2017-09-03T22:36:04.484Z,14.70
2017-09-03T22:38:31.147Z,15.00
2017-09-03T22:40:57.821Z,15.90
2017-09-03T22:43:24.472Z,15.87
2017-09-03T22:45:51.148Z,15.37
2017-09-03T22:48:17.812Z,15.27
2017-09-03T22:50:44.499Z,15.63
2017-09-03T22:53:11.164Z,16.50
2017-09-03T22:55:37.808Z,17.47
2017-09-03T22:58:04.476Z,20.33
2017-09-03T23:00:31.160Z,18.07
2017-09-03T23:02:57.812Z,17.60
2017-09-03T23:05:24.461Z,18.47
2017-09-03T23:07:51.140Z,17.93
2017-09-03T23:10:17.789Z,17.60
2017-09-03T23:12:44.463Z,16.47
2017-09-03T23:15:11.109Z,17.13
2017-09-03T23:17:37.760Z,17.40
2017-09-03T23:20:04.436Z,17.77
2017-09-03T23:22:35.110Z,17.30
2017-09-03T23:25:01.763Z,18.10
2017-09-03T23:27:28.408Z,17.53
2017-09-03T23:29:55.073Z,17.33
2017-09-03T23:32:21.714Z,17.30
2017-09-03T23:34:48.392Z,17.70
2017-09-03T23:37:15.150Z,17.70
2017-09-03T23:39:41.807Z,18.37
2017-09-03T23:42:08.484Z,18.27
2017-09-03T23:44:35.136Z,19.90
2017-09-03T23:47:01.781Z,20.20
2017-09-03T23:49:28.452Z,20.20
2017-09-03T23:51:55.125Z,22.47
2017-09-03T23:54:21.767Z,23.00
2017-09-03T23:56:48.435Z,23.87
2017-09-03T23:59:15.104Z,25.20
